Time;durP1;ratioP1;P1;durP2;ratioP2;P2;SDS_P1;SDS_P2;PMS_P1;PMS_P2;Temp;Humidity;BMP_temperature;BMP_pressure;BME280_temperature;BME280_humidity;BME280_pressure;Samples;Min_cycle;Max_cycle;Signal;HPM_P1;HPM_P2
2023/05/07 00:01:36;;;;;;;36.80;19.47;;;9.90;99.90;;;;;;4423434;28;657621;-74
2023/05/07 00:04:23;;;;;;;35.80;18.73;;;10.00;99.90;;;;;;4435930;28;658432;-73
2023/05/07 00:07:12;;;;;;;36.58;18.00;;;10.00;99.90;;;;;;4420024;28;658398;-73
2023/05/07 00:09:59;;;;;;;35.50;18.03;;;10.00;99.90;;;;;;4440170;28;658138;-73
2023/05/07 00:12:46;;;;;;;36.30;16.83;;;9.90;99.90;;;;;;4417091;28;658816;-73
2023/05/07 00:15:33;;;;;;;37.57;18.37;;;9.80;99.90;;;;;;4440912;28;658367;-72
2023/05/07 00:18:22;;;;;;;34.87;17.40;;;9.80;99.90;;;;;;4425671;28;657731;-73
2023/05/07 00:21:09;;;;;;;32.37;17.20;;;9.80;99.90;;;;;;4437118;28;657615;-71
2023/05/07 00:23:58;;;;;;;34.47;18.20;;;9.80;99.90;;;;;;4422945;28;658752;-72
2023/05/07 00:26:45;;;;;;;32.10;17.92;;;9.70;99.90;;;;;;4431177;28;657695;-73
2023/05/07 00:29:32;;;;;;;33.07;18.63;;;9.60;99.90;;;;;;4438689;28;658469;-73
2023/05/07 00:32:20;;;;;;;34.33;17.13;;;9.70;99.90;;;;;;4436818;28;658658;-72
2023/05/07 00:35:09;;;;;;;33.33;17.87;;;9.60;99.90;;;;;;4444153;28;658513;-72
2023/05/07 00:37:56;;;;;;;38.60;17.83;;;9.60;99.90;;;;;;4378515;28;657225;-73
2023/05/07 00:40:45;;;;;;;34.87;17.30;;;9.60;99.90;;;;;;4402358;28;658964;-73
2023/05/07 00:43:33;;;;;;;37.60;18.10;;;9.60;99.90;;;;;;4380068;28;657964;-72
2023/05/07 00:46:20;;;;;;;37.03;18.40;;;9.50;99.90;;;;;;4399814;28;658605;-73
2023/05/07 00:49:07;;;;;;;36.40;18.10;;;9.50;99.90;;;;;;4401761;28;659027;-72
2023/05/07 00:51:56;;;;;;;33.83;18.13;;;9.50;99.90;;;;;;4398934;28;657753;-72
2023/05/07 00:54:43;;;;;;;41.20;19.30;;;9.50;99.90;;;;;;4407035;28;657739;-73
2023/05/07 00:57:33;;;;;;;43.70;18.13;;;9.40;99.90;;;;;;4385800;28;657664;-73
2023/05/07 01:00:20;;;;;;;37.83;19.50;;;9.30;99.90;;;;;;4381549;28;659818;-72
2023/05/07 01:03:08;;;;;;;40.90;18.57;;;9.40;99.90;;;;;;4408066;28;658791;-73
2023/05/07 01:05:55;;;;;;;40.60;19.17;;;9.40;99.90;;;;;;4388870;28;657885;-72
2023/05/07 01:08:43;;;;;;;35.50;18.57;;;9.30;99.90;;;;;;4404763;28;659459;-72
2023/05/07 01:11:30;;;;;;;37.30;17.37;;;9.20;99.90;;;;;;4402860;28;657594;-73
2023/05/07 01:14:20;;;;;;;31.30;16.27;;;9.30;99.90;;;;;;4404838;28;658355;-71
2023/05/07 01:17:08;;;;;;;39.97;17.37;;;9.20;99.90;;;;;;4383155;28;657715;-72
2023/05/07 01:19:55;;;;;;;39.87;18.70;;;9.20;99.90;;;;;;4393200;28;658057;-73
2023/05/07 01:22:44;;;;;;;40.67;18.47;;;9.10;99.90;;;;;;4404174;28;657949;-71
2023/05/07 01:25:31;;;;;;;49.23;20.73;;;9.10;99.90;;;;;;4384524;28;658032;-72
2023/05/07 01:28:18;;;;;;;84.23;19.17;;;9.10;99.90;;;;;;4408126;28;658768;-73
2023/05/07 01:31:06;;;;;;;56.60;16.20;;;9.00;99.90;;;;;;4389861;28;657675;-72
2023/05/07 01:33:53;;;;;;;40.60;16.00;;;8.90;99.90;;;;;;4401274;28;658377;-73
2023/05/07 01:36:40;;;;;;;43.07;17.43;;;8.90;99.90;;;;;;4399866;28;658115;-72
2023/05/07 01:39:30;;;;;;;38.37;17.37;;;8.80;99.90;;;;;;4443553;28;658322;-72
2023/05/07 01:42:17;;;;;;;33.27;17.00;;;8.70;99.90;;;;;;4417713;28;659106;-73
2023/05/07 01:45:05;;;;;;;34.63;16.53;;;8.70;99.90;;;;;;4442462;28;657944;-73
2023/05/07 01:47:52;;;;;;;34.30;15.27;;;8.70;99.90;;;;;;4417860;28;659350;-72
2023/05/07 01:50:39;;;;;;;37.27;15.33;;;8.60;99.90;;;;;;4433049;28;657557;-72
2023/05/07 01:53:28;;;;;;;30.53;15.50;;;8.60;99.90;;;;;;4420116;28;658061;-72
2023/05/07 01:56:17;;;;;;;28.70;14.87;;;8.50;99.90;;;;;;4421030;28;658340;-73
2023/05/07 01:59:04;;;;;;;31.33;14.40;;;8.60;99.90;;;;;;4440147;28;657521;-72
2023/05/07 02:01:52;;;;;;;32.07;14.27;;;8.50;99.90;;;;;;4421579;28;658045;-73
2023/05/07 02:04:40;;;;;;;27.33;13.80;;;8.50;99.90;;;;;;4438068;28;657105;-73
2023/05/07 02:07:27;;;;;;;27.27;13.17;;;8.50;99.90;;;;;;4438816;28;657647;-72
2023/05/07 02:10:14;;;;;;;25.60;13.50;;;8.50;99.90;;;;;;4443235;28;657468;-72
2023/05/07 02:13:03;;;;;;;26.47;13.10;;;8.50;99.90;;;;;;4417407;28;659014;-72
2023/05/07 02:15:50;;;;;;;30.10;14.17;;;8.50;99.90;;;;;;4416242;28;657572;-73
2023/05/07 02:18:38;;;;;;;29.03;13.43;;;8.40;99.90;;;;;;4436794;28;659135;-72
2023/05/07 02:21:26;;;;;;;23.83;12.63;;;8.40;99.90;;;;;;4432957;28;657950;-73
2023/05/07 02:24:13;;;;;;;27.57;13.17;;;8.40;99.90;;;;;;4443116;28;657452;-71
2023/05/07 02:27:01;;;;;;;26.43;13.90;;;8.40;99.90;;;;;;4424790;28;657325;-72
2023/05/07 02:29:49;;;;;;;28.10;13.03;;;8.40;99.90;;;;;;4444146;28;658038;-72
2023/05/07 02:32:36;;;;;;;19.17;11.07;;;8.40;99.90;;;;;;4417562;28;658327;-72
2023/05/07 02:35:25;;;;;;;19.50;10.50;;;8.40;99.90;;;;;;4439590;28;657781;-72
2023/05/07 02:38:12;;;;;;;17.00;9.30;;;8.40;99.90;;;;;;4414354;28;659288;-71
2023/05/07 02:40:59;;;;;;;14.83;9.03;;;8.30;99.90;;;;;;4432484;28;656894;-72
2023/05/07 02:43:46;;;;;;;16.40;9.00;;;8.30;99.90;;;;;;4420333;28;656753;-72
2023/05/07 02:46:35;;;;;;;15.20;9.00;;;8.30;99.90;;;;;;4440053;28;656857;-71
2023/05/07 02:49:22;;;;;;;15.90;9.63;;;8.20;99.90;;;;;;4420920;28;656683;-74
2023/05/07 02:52:09;;;;;;;16.97;9.53;;;8.00;99.90;;;;;;4443868;28;656323;-73
2023/05/07 02:54:56;;;;;;;17.30;9.20;;;8.00;99.90;;;;;;4418500;28;656234;-71
2023/05/07 02:57:44;;;;;;;17.83;9.23;;;8.10;99.90;;;;;;4439119;28;656861;-73
2023/05/07 03:00:31;;;;;;;14.90;9.40;;;8.10;99.90;;;;;;4420456;28;657216;-71
2023/05/07 03:03:19;;;;;;;13.40;8.45;;;8.20;99.90;;;;;;4435452;28;657158;-73
2023/05/07 03:06:07;;;;;;;12.67;8.20;;;8.20;99.90;;;;;;4423399;28;656933;-72
2023/05/07 03:08:54;;;;;;;12.57;7.65;;;8.20;99.90;;;;;;4436698;28;657541;-71
2023/05/07 03:11:41;;;;;;;15.70;8.47;;;8.20;99.90;;;;;;4418555;28;656448;-74
2023/05/07 03:14:29;;;;;;;14.03;8.10;;;8.20;99.90;;;;;;4433487;28;656473;-71
2023/05/07 03:17:16;;;;;;;12.40;7.63;;;8.20;99.90;;;;;;4419683;28;656513;-72
2023/05/07 03:20:06;;;;;;;13.00;8.10;;;8.20;99.90;;;;;;4444478;28;657385;-72
2023/05/07 03:22:54;;;;;;;11.00;7.90;;;8.20;99.90;;;;;;4418913;28;657280;-73
2023/05/07 03:25:41;;;;;;;13.13;8.60;;;8.20;99.90;;;;;;4423050;28;656828;-72
2023/05/07 03:28:28;;;;;;;13.30;8.90;;;8.20;99.90;;;;;;4442858;28;657007;-72
2023/05/07 03:31:15;;;;;;;16.33;9.17;;;8.10;99.90;;;;;;4411966;28;656506;-73
2023/05/07 03:34:02;;;;;;;16.67;8.03;;;8.10;99.90;;;;;;4441298;28;657540;-73
2023/05/07 03:36:52;;;;;;;13.27;8.53;;;8.20;99.90;;;;;;4445247;28;655890;-73
2023/05/07 03:39:39;;;;;;;12.97;7.50;;;8.10;99.90;;;;;;4440775;28;656913;-73
2023/05/07 03:42:26;;;;;;;12.87;7.17;;;8.00;99.90;;;;;;4418770;28;656905;-71
2023/05/07 03:45:13;;;;;;;13.30;7.53;;;8.00;99.90;;;;;;4442716;28;658202;-72
2023/05/07 03:48:00;;;;;;;12.10;5.80;;;8.00;99.90;;;;;;4419618;28;656794;-72
2023/05/07 03:50:47;;;;;;;9.60;6.30;;;7.90;99.90;;;;;;4441690;28;657613;-72
2023/05/07 03:53:37;;;;;;;10.73;6.00;;;7.90;99.90;;;;;;4437670;28;655387;-73
2023/05/07 03:56:26;;;;;;;15.73;6.00;;;7.90;99.90;;;;;;4445206;28;656293;-72
2023/05/07 03:59:13;;;;;;;11.53;6.50;;;7.90;99.90;;;;;;4417717;28;657507;-72
2023/05/07 04:02:01;;;;;;;9.37;6.43;;;7.90;99.90;;;;;;4424133;28;656499;-73
2023/05/07 04:04:49;;;;;;;9.93;6.83;;;7.90;99.90;;;;;;4451041;28;656518;-71
2023/05/07 04:07:36;;;;;;;8.00;6.27;;;7.90;99.90;;;;;;4418103;28;655987;-74
2023/05/07 04:10:25;;;;;;;16.07;7.37;;;7.90;99.90;;;;;;4443447;28;656170;-73
2023/05/07 04:13:12;;;;;;;8.87;5.97;;;7.90;99.90;;;;;;4421938;28;657126;-71
2023/05/07 04:16:01;;;;;;;9.77;6.40;;;7.90;99.90;;;;;;4443481;28;655213;-72
2023/05/07 04:18:49;;;;;;;17.43;8.43;;;7.90;99.90;;;;;;4443199;28;655539;-72
2023/05/07 04:21:36;;;;;;;12.03;7.80;;;7.90;99.90;;;;;;4423690;28;656820;-73
2023/05/07 04:24:23;;;;;;;12.50;7.15;;;7.90;99.90;;;;;;4433776;28;658187;-72
2023/05/07 04:27:12;;;;;;;13.73;6.63;;;7.90;99.90;;;;;;4424560;28;656136;-73
2023/05/07 04:30:00;;;;;;;11.00;6.20;;;7.90;99.90;;;;;;4444053;28;657141;-72
2023/05/07 04:32:47;;;;;;;7.65;5.10;;;7.90;99.90;;;;;;4425182;28;656649;-72
2023/05/07 04:35:36;;;;;;;6.47;4.70;;;7.80;99.90;;;;;;4437661;28;655645;-73
2023/05/07 04:38:24;;;;;;;6.63;4.77;;;7.80;99.90;;;;;;4445037;28;656513;-73
2023/05/07 04:41:13;;;;;;;8.73;4.60;;;7.70;99.90;;;;;;4421231;28;656172;-72
2023/05/07 04:44:04;;;;;;;7.50;4.77;;;7.70;99.90;;;;;;4425607;28;655585;-72
2023/05/07 04:46:51;;;;;;;10.50;5.57;;;7.60;99.90;;;;;;4423019;28;655850;-73
2023/05/07 04:49:38;;;;;;;8.70;5.00;;;7.60;99.90;;;;;;4446991;28;657168;-72
2023/05/07 04:52:26;;;;;;;8.77;4.70;;;7.60;99.90;;;;;;4423901;28;655387;-72
2023/05/07 04:55:13;;;;;;;11.80;4.72;;;7.60;99.90;;;;;;4445234;28;657159;-72
2023/05/07 04:58:01;;;;;;;9.10;4.87;;;7.60;99.90;;;;;;4424369;28;656545;-72
2023/05/07 05:00:50;;;;;;;12.70;5.13;;;7.50;99.90;;;;;;4437116;28;655901;-73
2023/05/07 05:03:39;;;;;;;9.87;4.73;;;7.50;99.90;;;;;;4422461;28;656737;-73
2023/05/07 05:06:26;;;;;;;7.73;4.23;;;7.50;99.90;;;;;;4422244;28;655851;-73
2023/05/07 05:09:14;;;;;;;9.27;4.50;;;7.60;99.90;;;;;;4448396;28;655862;-72
2023/05/07 05:12:01;;;;;;;9.90;4.20;;;7.60;99.90;;;;;;4421270;28;655235;-72
2023/05/07 05:14:48;;;;;;;8.47;4.50;;;7.60;99.90;;;;;;4443553;28;656271;-73
2023/05/07 05:17:37;;;;;;;4.63;3.80;;;7.50;99.90;;;;;;4422771;28;655527;-72
2023/05/07 05:20:24;;;;;;;7.20;3.90;;;7.50;99.90;;;;;;4443262;28;655171;-72
2023/05/07 05:23:11;;;;;;;5.17;3.70;;;7.60;99.90;;;;;;4422690;28;655732;-73
2023/05/07 05:25:58;;;;;;;5.53;3.80;;;7.60;99.90;;;;;;4439527;28;656633;-72
2023/05/07 05:28:45;;;;;;;7.83;3.97;;;7.60;99.90;;;;;;4424811;28;655699;-74
2023/05/07 05:31:33;;;;;;;8.93;4.37;;;7.60;99.90;;;;;;4435786;28;655855;-72
2023/05/07 05:34:22;;;;;;;9.95;4.50;;;7.60;99.90;;;;;;4424134;28;655698;-74
2023/05/07 05:37:09;;;;;;;7.60;4.57;;;7.60;99.90;;;;;;4442592;28;655783;-74
2023/05/07 05:39:56;;;;;;;8.47;4.50;;;7.60;99.90;;;;;;4426240;28;655958;-73
2023/05/07 05:42:43;;;;;;;6.87;4.40;;;7.50;99.90;;;;;;4442879;28;656577;-72
2023/05/07 05:45:30;;;;;;;7.70;3.80;;;7.50;99.90;;;;;;4420382;28;655234;-72
2023/05/07 05:48:18;;;;;;;8.23;4.03;;;7.50;99.90;;;;;;4442725;28;656763;-72
2023/05/07 05:51:07;;;;;;;9.30;4.37;;;7.50;99.90;;;;;;4423440;28;655409;-72
2023/05/07 05:53:54;;;;;;;9.17;4.90;;;7.40;99.90;;;;;;4445834;28;654649;-72
2023/05/07 05:56:41;;;;;;;6.55;4.40;;;7.40;99.90;;;;;;4416522;28;655547;-73
2023/05/07 05:59:28;;;;;;;6.77;3.87;;;7.40;99.90;;;;;;4449141;28;655471;-71
2023/05/07 06:02:15;;;;;;;10.13;4.90;;;7.40;99.90;;;;;;4422289;28;655327;-73
2023/05/07 06:05:02;;;;;;;5.17;3.43;;;7.30;99.90;;;;;;4440179;28;657417;-72
2023/05/07 06:07:52;;;;;;;6.60;4.13;;;7.30;99.90;;;;;;4432286;28;656357;-73
2023/05/07 06:10:39;;;;;;;6.77;3.77;;;7.30;99.90;;;;;;4438886;28;656621;-72
2023/05/07 06:13:26;;;;;;;6.13;3.70;;;7.30;99.90;;;;;;4419645;28;655817;-72
2023/05/07 06:16:13;;;;;;;8.93;4.80;;;7.40;99.90;;;;;;4446562;28;657587;-73
2023/05/07 06:19:00;;;;;;;11.40;4.60;;;7.30;99.90;;;;;;4424265;28;655258;-73
2023/05/07 06:21:47;;;;;;;5.73;3.50;;;7.40;99.90;;;;;;4444850;28;657082;-73
2023/05/07 06:24:37;;;;;;;5.43;3.60;;;7.30;99.90;;;;;;4433828;28;655743;-73
2023/05/07 06:27:24;;;;;;;7.60;4.53;;;7.30;99.90;;;;;;4434073;28;655650;-72
2023/05/07 06:30:12;;;;;;;6.67;4.10;;;7.30;99.90;;;;;;4415867;28;655376;-73
2023/05/07 06:32:59;;;;;;;8.77;4.30;;;7.30;99.90;;;;;;4440483;28;655859;-72
2023/05/07 06:35:46;;;;;;;6.10;3.80;;;7.20;99.90;;;;;;4424878;28;655891;-74
2023/05/07 06:38:33;;;;;;;10.33;4.90;;;7.20;99.90;;;;;;4435466;28;656655;-73
2023/05/07 06:41:22;;;;;;;19.60;5.93;;;7.20;99.90;;;;;;4421959;28;656335;-73
2023/05/07 06:44:09;;;;;;;8.30;5.07;;;7.30;99.90;;;;;;4438035;28;657276;-73
2023/05/07 06:46:56;;;;;;;10.57;4.53;;;7.30;99.90;;;;;;4424032;28;655971;-73
2023/05/07 06:49:44;;;;;;;9.37;4.43;;;7.20;99.90;;;;;;4443946;28;657576;-73
2023/05/07 06:52:31;;;;;;;11.95;5.10;;;7.10;99.90;;;;;;4423076;28;655296;-73
2023/05/07 06:55:19;;;;;;;6.37;4.10;;;7.20;99.90;;;;;;4437233;28;656808;-74
2023/05/07 06:58:07;;;;;;;6.30;4.17;;;7.20;99.90;;;;;;4424064;28;656189;-72
2023/05/07 07:00:54;;;;;;;8.20;4.27;;;7.20;99.90;;;;;;4436945;28;655387;-73
2023/05/07 07:03:42;;;;;;;4.30;3.77;;;7.20;99.90;;;;;;4421535;28;655494;-73
2023/05/07 07:06:31;;;;;;;5.87;4.00;;;7.20;99.90;;;;;;4441780;28;655663;-74
2023/05/07 07:09:18;;;;;;;8.00;4.18;;;7.20;99.90;;;;;;4415258;28;657259;-75
2023/05/07 07:12:06;;;;;;;6.43;3.57;;;7.30;99.90;;;;;;4422058;28;655446;-74
2023/05/07 07:14:54;;;;;;;6.33;3.33;;;7.20;99.90;;;;;;4446751;28;656920;-75
2023/05/07 07:17:41;;;;;;;7.80;3.80;;;7.20;99.90;;;;;;4414176;28;655740;-74
2023/05/07 07:20:29;;;;;;;7.57;4.00;;;7.20;99.90;;;;;;4445053;28;655977;-72
2023/05/07 07:23:16;;;;;;;8.13;4.07;;;7.20;99.90;;;;;;4422109;28;655816;-72
2023/05/07 07:26:03;;;;;;;10.70;4.97;;;7.30;99.90;;;;;;4441071;28;656391;-73
2023/05/07 07:28:50;;;;;;;9.43;4.20;;;7.30;99.90;;;;;;4417513;28;656305;-73
2023/05/07 07:31:39;;;;;;;10.63;4.13;;;7.30;99.90;;;;;;4440290;28;656290;-73
2023/05/07 07:34:26;;;;;;;7.60;4.23;;;7.30;99.90;;;;;;4419245;28;656136;-72
2023/05/07 07:37:13;;;;;;;6.47;3.63;;;7.40;99.90;;;;;;4448203;28;656076;-72
2023/05/07 07:40:01;;;;;;;6.63;3.50;;;7.40;99.90;;;;;;4423570;28;656881;-73
2023/05/07 07:42:48;;;;;;;5.47;3.37;;;7.50;99.90;;;;;;4448487;28;655854;-73
2023/05/07 07:45:35;;;;;;;4.32;3.15;;;7.60;99.90;;;;;;4428509;28;655536;-72
2023/05/07 07:48:24;;;;;;;9.07;3.00;;;7.70;99.90;;;;;;4444551;28;656838;-73
2023/05/07 07:51:11;;;;;;;5.83;3.40;;;7.80;99.90;;;;;;4423395;28;656343;-73
2023/05/07 07:53:58;;;;;;;7.77;3.40;;;7.80;99.90;;;;;;4443096;28;655090;-73
2023/05/07 07:56:46;;;;;;;7.70;3.80;;;7.80;99.90;;;;;;4426079;28;655364;-73
2023/05/07 07:59:33;;;;;;;5.97;3.60;;;7.70;99.90;;;;;;4445880;28;656668;-73
2023/05/07 08:02:20;;;;;;;9.33;4.10;;;7.60;99.90;;;;;;4426342;28;657214;-73
2023/05/07 08:05:09;;;;;;;4.57;3.20;;;7.60;99.90;;;;;;4441271;28;655480;-72
2023/05/07 08:07:56;;;;;;;7.63;3.67;;;7.50;99.90;;;;;;4416033;28;655487;-73
2023/05/07 08:10:44;;;;;;;6.27;3.10;;;7.50;99.90;;;;;;4450717;28;656067;-73
2023/05/07 08:13:31;;;;;;;9.40;3.63;;;7.50;99.90;;;;;;4415275;28;657708;-73
2023/05/07 08:16:18;;;;;;;8.73;3.73;;;7.60;99.90;;;;;;4431110;28;656967;-73
2023/05/07 08:19:06;;;;;;;10.43;3.40;;;7.60;99.90;;;;;;4413479;28;656316;-72
2023/05/07 08:21:55;;;;;;;7.13;3.23;;;7.70;99.90;;;;;;4452690;28;657553;-73
2023/05/07 08:24:42;;;;;;;14.97;3.87;;;7.70;99.90;;;;;;4421133;28;656969;-72
2023/05/07 08:27:29;;;;;;;9.57;3.80;;;7.70;99.90;;;;;;4441695;28;656843;-72
2023/05/07 08:30:16;;;;;;;4.50;3.20;;;7.60;99.90;;;;;;4420419;28;655747;-72
2023/05/07 08:33:04;;;;;;;7.17;3.77;;;7.60;99.90;;;;;;4451237;28;655477;-72
2023/05/07 08:35:51;;;;;;;11.40;4.13;;;7.60;99.90;;;;;;4418211;28;655556;-72
2023/05/07 08:38:42;;;;;;;6.00;3.83;;;7.60;99.90;;;;;;4440884;28;657580;-72
2023/05/07 08:41:29;;;;;;;9.13;4.00;;;7.70;99.90;;;;;;4408471;28;655943;-72
2023/05/07 08:44:17;;;;;;;6.33;3.80;;;7.70;99.90;;;;;;4414254;28;656164;-73
2023/05/07 08:47:06;;;;;;;5.13;3.47;;;7.60;99.90;;;;;;4441810;28;655675;-73
2023/05/07 08:49:54;;;;;;;6.53;3.67;;;7.60;99.90;;;;;;4439235;28;655870;-73
2023/05/07 08:52:41;;;;;;;6.40;3.90;;;7.50;99.90;;;;;;4419087;28;655665;-72
2023/05/07 08:55:30;;;;;;;5.13;3.57;;;7.60;99.90;;;;;;4453404;28;655784;-72
2023/05/07 08:58:17;;;;;;;9.13;3.87;;;7.50;99.90;;;;;;4419721;28;655849;-72
2023/05/07 09:01:08;;;;;;;3.80;2.90;;;7.60;99.90;;;;;;4437660;28;655272;-73
2023/05/07 09:03:55;;;;;;;6.03;3.70;;;7.60;99.90;;;;;;4411330;28;656062;-72
2023/05/07 09:06:42;;;;;;;6.60;4.30;;;7.70;99.90;;;;;;4434425;28;655804;-72
2023/05/07 09:09:30;;;;;;;8.13;4.87;;;7.70;99.90;;;;;;4434116;28;655863;-72
2023/05/07 09:12:19;;;;;;;8.83;4.70;;;7.60;99.90;;;;;;4436728;28;655928;-73
2023/05/07 09:15:08;;;;;;;6.87;4.33;;;7.60;99.90;;;;;;4416672;28;655409;-73
2023/05/07 09:17:55;;;;;;;7.33;4.17;;;7.60;99.90;;;;;;4417387;28;655384;-72
2023/05/07 09:20:42;;;;;;;7.60;4.37;;;7.70;99.90;;;;;;4453523;28;656638;-72
2023/05/07 09:23:30;;;;;;;7.47;4.53;;;7.70;99.90;;;;;;4448241;28;655510;-72
2023/05/07 09:26:17;;;;;;;7.30;4.40;;;7.70;99.90;;;;;;4416488;28;656517;-72
2023/05/07 09:29:05;;;;;;;10.33;4.80;;;7.80;99.90;;;;;;4431110;28;655831;-72
2023/05/07 09:31:52;;;;;;;12.77;5.90;;;7.80;99.90;;;;;;4418496;28;657886;-72
2023/05/07 09:34:40;;;;;;;11.47;5.80;;;7.90;99.90;;;;;;4439604;28;656569;-72
2023/05/07 09:37:27;;;;;;;10.47;5.00;;;7.80;99.90;;;;;;4459491;28;657005;-72
2023/05/07 09:40:21;;;;;;;8.83;4.73;;;7.80;99.90;;;;;;4437039;28;656656;-72
2023/05/07 09:43:12;;;;;;;8.97;4.90;;;7.70;99.90;;;;;;4424958;28;655314;-72
2023/05/07 09:46:02;;;;;;;9.50;4.87;;;7.60;99.90;;;;;;4435744;28;656526;-72
2023/05/07 09:48:50;;;;;;;6.37;4.30;;;7.60;99.90;;;;;;4421581;28;655796;-73
2023/05/07 09:51:40;;;;;;;7.87;5.20;;;7.60;99.90;;;;;;4441037;28;655561;-73
2023/05/07 09:54:29;;;;;;;10.33;5.77;;;7.80;99.90;;;;;;4434798;28;656115;-73
2023/05/07 09:57:16;;;;;;;11.53;5.40;;;7.70;99.90;;;;;;4426876;28;657196;-73
2023/05/07 10:00:05;;;;;;;11.07;5.47;;;7.70;99.90;;;;;;4446748;28;657870;-72
2023/05/07 10:02:54;;;;;;;10.45;5.50;;;7.70;99.90;;;;;;4423644;28;657547;-72
2023/05/07 10:05:41;;;;;;;9.77;5.37;;;7.70;99.90;;;;;;4414272;28;656425;-72
2023/05/07 10:08:28;;;;;;;8.13;5.20;;;7.70;99.90;;;;;;4435442;28;656728;-72
2023/05/07 10:11:15;;;;;;;9.90;5.80;;;7.70;99.90;;;;;;4424211;28;655251;-73
2023/05/07 10:14:03;;;;;;;9.90;6.10;;;7.70;99.90;;;;;;4429052;28;656587;-72
2023/05/07 10:16:50;;;;;;;9.75;6.10;;;7.70;99.90;;;;;;4414749;28;655150;-72
2023/05/07 10:19:39;;;;;;;13.57;6.80;;;7.70;99.90;;;;;;4434679;28;656498;-72
2023/05/07 10:22:27;;;;;;;11.47;6.80;;;7.70;99.90;;;;;;4410507;28;656743;-72
2023/05/07 10:25:15;;;;;;;12.57;7.20;;;7.70;99.90;;;;;;4432908;28;656231;-72
2023/05/07 10:28:05;;;;;;;12.03;7.23;;;7.80;99.90;;;;;;4421038;28;658257;-72
2023/05/07 10:31:00;;;;;;;10.33;6.20;;;7.80;99.90;;;;;;4432351;28;657666;-72
2023/05/07 10:33:48;;;;;;;9.40;6.20;;;7.80;99.90;;;;;;4440093;28;657024;-72
2023/05/07 10:36:36;;;;;;;10.33;5.60;;;7.90;99.90;;;;;;4429194;28;656168;-73
2023/05/07 10:39:24;;;;;;;9.23;5.70;;;7.90;99.90;;;;;;4436576;28;656612;-72
2023/05/07 10:42:11;;;;;;;9.75;6.20;;;7.70;99.90;;;;;;4407713;28;655446;-72
2023/05/07 10:44:58;;;;;;;12.47;5.90;;;7.70;99.90;;;;;;4433942;28;656803;-73
2023/05/07 10:48:08;;;;;;;9.87;6.50;;;7.70;99.90;;;;;;4415214;28;656732;-72
2023/05/07 10:51:19;;;;;;;9.50;6.87;;;7.70;99.90;;;;;;4426347;28;655910;-72
2023/05/07 10:54:24;;;;;;;10.90;7.10;;;7.70;99.90;;;;;;4413473;28;655497;-72
2023/05/07 10:57:41;;;;;;;10.47;6.90;;;7.60;99.90;;;;;;4408094;28;657487;-72
2023/05/07 11:00:46;;;;;;;10.50;7.50;;;7.60;99.90;;;;;;4356595;28;657155;-72
2023/05/07 11:03:34;;;;;;;11.40;8.53;;;7.60;99.90;;;;;;4410866;28;658584;-71
2023/05/07 11:06:21;;;;;;;11.27;7.67;;;7.50;99.90;;;;;;4411467;28;656656;-73
2023/05/07 11:09:08;;;;;;;13.00;9.63;;;7.60;99.90;;;;;;4460196;28;656573;-72
2023/05/07 11:11:57;;;;;;;11.83;7.93;;;7.60;99.90;;;;;;4415947;28;656219;-72
2023/05/07 11:14:45;;;;;;;10.43;7.47;;;7.60;99.90;;;;;;4443882;28;657100;-73
2023/05/07 11:17:34;;;;;;;10.47;7.10;;;7.70;99.90;;;;;;4444884;28;657514;-73
2023/05/07 11:20:21;;;;;;;9.90;7.60;;;7.80;99.90;;;;;;4408840;28;656986;-72
2023/05/07 11:23:08;;;;;;;10.20;7.17;;;7.80;99.90;;;;;;4428622;28;656274;-72
2023/05/07 11:26:00;;;;;;;12.70;7.10;;;7.80;99.90;;;;;;4409704;28;656305;-73
2023/05/07 11:28:48;;;;;;;8.63;6.90;;;7.90;99.90;;;;;;4416914;28;658273;-72
2023/05/07 11:31:36;;;;;;;10.60;8.00;;;7.90;99.90;;;;;;4432113;28;655720;-72
2023/05/07 11:34:23;;;;;;;10.63;7.83;;;7.90;99.90;;;;;;4433678;28;657636;-72
2023/05/07 11:37:12;;;;;;;13.60;7.77;;;8.00;99.90;;;;;;4417368;28;656857;-71
2023/05/07 11:40:06;;;;;;;8.57;6.47;;;8.00;99.90;;;;;;4444637;28;656181;-72
2023/05/07 11:42:53;;;;;;;12.90;6.90;;;7.90;99.90;;;;;;4430461;28;656351;-72
2023/05/07 11:45:42;;;;;;;11.57;7.70;;;8.00;99.90;;;;;;4431277;28;657255;-72
2023/05/07 11:48:30;;;;;;;10.43;7.10;;;8.10;99.90;;;;;;4437887;28;657163;-73
2023/05/07 11:51:20;;;;;;;10.87;6.63;;;8.20;99.90;;;;;;4405902;28;657476;-73
2023/05/07 11:54:08;;;;;;;8.67;6.47;;;8.10;99.90;;;;;;4418814;28;657755;-72
2023/05/07 11:56:58;;;;;;;9.30;6.82;;;8.10;99.90;;;;;;4439726;28;655621;-72
2023/05/07 11:59:46;;;;;;;8.73;6.60;;;8.00;99.90;;;;;;4421163;28;655973;-72
2023/05/07 12:02:35;;;;;;;11.17;7.10;;;8.10;99.90;;;;;;4441223;28;656464;-72
2023/05/07 12:05:22;;;;;;;12.43;6.60;;;8.40;99.90;;;;;;4418675;28;657222;-73
2023/05/07 12:08:12;;;;;;;9.27;5.97;;;8.50;99.90;;;;;;4434399;28;656124;-73
2023/05/07 12:10:59;;;;;;;9.10;4.93;;;8.60;99.90;;;;;;4436450;28;655381;-72
2023/05/07 12:13:46;;;;;;;9.30;5.77;;;8.50;99.90;;;;;;4415682;28;655387;-72
2023/05/07 12:16:33;;;;;;;6.63;5.17;;;8.30;99.90;;;;;;4431344;28;656090;-72
2023/05/07 12:19:22;;;;;;;7.23;5.47;;;8.30;99.90;;;;;;4412950;28;655708;-73
2023/05/07 12:22:09;;;;;;;8.07;5.28;;;8.40;99.90;;;;;;4433248;28;656120;-72
2023/05/07 12:24:58;;;;;;;6.00;4.93;;;8.50;99.90;;;;;;4417545;28;655388;-72
2023/05/07 12:27:45;;;;;;;9.60;5.33;;;8.40;99.90;;;;;;4414139;28;655705;-72
2023/05/07 12:30:32;;;;;;;12.20;5.77;;;8.30;99.90;;;;;;4438479;28;656561;-73
2023/05/07 12:33:27;;;;;;;7.70;5.07;;;8.20;99.90;;;;;;4431363;28;656823;-73
2023/05/07 12:36:17;;;;;;;8.35;5.20;;;8.20;99.90;;;;;;4411195;28;656121;-72
2023/05/07 12:39:05;;;;;;;11.43;5.47;;;8.20;99.90;;;;;;4455858;28;656580;-72
2023/05/07 12:41:55;;;;;;;7.13;5.00;;;8.20;99.90;;;;;;4420498;28;656891;-73
2023/05/07 12:44:43;;;;;;;6.70;4.80;;;8.20;99.90;;;;;;4430293;28;655590;-72
2023/05/07 12:47:30;;;;;;;6.77;4.70;;;8.10;99.90;;;;;;4442203;28;655653;-72
2023/05/07 12:50:17;;;;;;;9.20;5.17;;;8.10;99.90;;;;;;4460406;28;655652;-73
2023/05/07 12:53:07;;;;;;;9.13;5.57;;;7.90;99.90;;;;;;4436008;28;655602;-72
2023/05/07 12:55:55;;;;;;;6.87;5.07;;;7.90;99.90;;;;;;4458833;28;656236;-72
2023/05/07 12:58:42;;;;;;;8.60;5.20;;;7.90;99.90;;;;;;4430683;28;656439;-73
2023/05/07 13:01:30;;;;;;;7.60;5.10;;;7.80;99.90;;;;;;4444290;28;656156;-72
2023/05/07 13:04:17;;;;;;;7.32;4.72;;;8.00;99.90;;;;;;4414327;28;656713;-72
2023/05/07 13:07:04;;;;;;;5.17;4.20;;;8.10;99.90;;;;;;4437630;28;654855;-72
2023/05/07 13:09:53;;;;;;;6.70;4.90;;;8.20;99.90;;;;;;4423301;28;659217;-72
2023/05/07 13:12:40;;;;;;;7.18;5.00;;;8.20;99.90;;;;;;4411296;28;655602;-73
2023/05/07 13:15:28;;;;;;;7.27;4.60;;;8.30;99.90;;;;;;4452864;28;655005;-72
2023/05/07 13:18:15;;;;;;;7.30;4.23;;;8.30;99.90;;;;;;4452537;28;656114;-72
2023/05/07 13:21:02;;;;;;;5.40;4.40;;;8.30;99.90;;;;;;4437485;28;656806;-72
2023/05/07 13:23:50;;;;;;;5.40;4.13;;;8.40;99.90;;;;;;4430451;28;655769;-72
2023/05/07 13:26:39;;;;;;;7.80;5.20;;;8.20;99.90;;;;;;4432495;28;656633;-73
2023/05/07 13:29:29;;;;;;;7.53;4.93;;;8.20;99.90;;;;;;4412146;28;655354;-73
2023/05/07 13:32:16;;;;;;;7.80;5.10;;;7.90;99.90;;;;;;4411270;28;655710;-72
2023/05/07 13:35:04;;;;;;;6.83;5.00;;;7.80;99.90;;;;;;4443274;28;655563;-72
2023/05/07 13:37:51;;;;;;;6.97;5.03;;;7.70;99.90;;;;;;4412006;28;656278;-72
2023/05/07 13:40:39;;;;;;;7.33;4.93;;;7.60;99.90;;;;;;4449289;28;656075;-72
2023/05/07 13:43:27;;;;;;;5.53;4.37;;;7.70;99.90;;;;;;4428873;28;655796;-72
2023/05/07 13:46:14;;;;;;;5.93;4.87;;;7.70;99.90;;;;;;4430892;28;655219;-72
2023/05/07 13:49:02;;;;;;;6.93;4.53;;;7.80;99.90;;;;;;4423921;28;656036;-73
2023/05/07 13:51:49;;;;;;;7.50;4.73;;;7.90;99.90;;;;;;4451108;28;655734;-72
2023/05/07 13:54:36;;;;;;;6.13;4.87;;;7.90;99.90;;;;;;4429312;28;655424;-72
2023/05/07 13:57:23;;;;;;;5.80;4.33;;;7.90;99.90;;;;;;4446147;28;657114;-72
2023/05/07 14:00:13;;;;;;;6.30;4.03;;;7.80;99.90;;;;;;4429813;28;655326;-72
2023/05/07 14:03:01;;;;;;;8.37;4.30;;;7.80;99.90;;;;;;4417659;28;655702;-72
2023/05/07 14:05:48;;;;;;;9.17;4.80;;;7.70;99.90;;;;;;4431033;28;656608;-72
2023/05/07 14:08:35;;;;;;;7.95;4.80;;;7.90;99.90;;;;;;4416090;28;655804;-72
2023/05/07 14:11:22;;;;;;;5.47;4.33;;;8.00;99.90;;;;;;4439337;28;656835;-72
2023/05/07 14:14:11;;;;;;;6.80;4.23;;;8.10;99.90;;;;;;4435648;28;655196;-74
2023/05/07 14:17:00;;;;;;;6.80;4.20;;;7.90;99.90;;;;;;4439602;28;656774;-72
2023/05/07 14:19:47;;;;;;;5.43;4.30;;;7.80;99.90;;;;;;4408351;28;656392;-72
2023/05/07 14:22:34;;;;;;;7.10;4.70;;;7.70;99.90;;;;;;4431167;28;655424;-72
2023/05/07 14:25:21;;;;;;;15.60;4.97;;;7.50;99.90;;;;;;4409188;28;655202;-73
2023/05/07 14:28:09;;;;;;;8.57;5.00;;;7.40;99.90;;;;;;4433901;28;657761;-73